createdAt,value
2019-04-10T15:34:56.725Z,87.80
2019-04-10T15:40:13.560Z,54.00
2019-04-10T15:45:07.244Z,56.30
2019-04-10T15:50:11.275Z,55.30
2019-04-10T15:55:15.283Z,55.10
2019-04-10T16:00:19.243Z,55.90
2019-04-10T16:05:23.673Z,56.10
2019-04-10T16:10:29.351Z,56.40
2019-04-10T16:15:40.882Z,56.40
2019-04-10T16:20:47.215Z,56.10
2019-04-10T16:25:52.798Z,56.40
2019-04-10T16:30:57.264Z,56.40
2019-04-10T16:36:01.091Z,56.80
2019-04-10T16:41:05.534Z,56.60
2019-04-10T16:46:09.357Z,56.40
2019-04-10T16:51:14.139Z,56.40
2019-04-10T16:56:18.251Z,56.60
2019-04-10T17:01:22.551Z,56.70
2019-04-10T17:06:26.515Z,56.80
2019-04-10T17:11:30.811Z,56.50
2019-04-10T17:16:35.704Z,56.70
2019-04-10T17:21:40.478Z,56.70
2019-04-10T17:26:44.593Z,56.80
2019-04-10T17:31:48.859Z,56.20
2019-04-10T17:36:53.543Z,56.20
2019-04-10T17:41:57.874Z,56.20
2019-04-10T17:47:02.050Z,56.10
2019-04-10T17:52:06.302Z,55.90
2019-04-10T17:57:10.720Z,55.20
2019-04-10T18:02:26.451Z,56.80
2019-04-10T18:07:20.151Z,54.90
2019-04-10T18:12:24.751Z,48.20
2019-04-10T18:17:29.155Z,52.20
2019-04-10T18:22:34.328Z,54.60
2019-04-10T18:27:38.680Z,55.50
2019-04-10T18:32:42.646Z,55.70
2019-04-10T18:37:47.695Z,55.60
2019-04-10T18:42:54.683Z,55.50
2019-04-10T18:47:58.529Z,54.50
2019-04-10T18:53:03.628Z,54.30
2019-04-10T18:58:09.611Z,53.90
2019-04-10T19:03:31.787Z,53.70
2019-04-10T19:08:37.650Z,54.40
2019-04-10T19:13:42.453Z,79.30
2019-04-10T19:18:47.899Z,91.10
2019-04-10T19:23:52.988Z,87.00
2019-04-10T19:28:59.116Z,87.30
2019-04-10T19:34:03.885Z,87.60
2019-04-10T19:39:08.344Z,87.50
2019-04-10T19:44:12.844Z,87.50
2019-04-10T19:49:16.926Z,87.00
2019-04-10T19:54:21.947Z,86.10
2019-04-10T19:59:27.003Z,85.80
2019-04-10T20:04:31.172Z,85.30
2019-04-10T20:09:34.996Z,85.10
2019-04-10T20:14:38.890Z,84.90
2019-04-10T20:19:42.651Z,84.70
2019-04-10T20:24:47.212Z,84.40
2019-04-10T20:29:51.541Z,84.50
2019-04-10T20:34:55.903Z,81.30
2019-04-10T20:40:01.222Z,80.00
2019-04-10T20:45:07.353Z,80.00
2019-04-10T20:50:11.999Z,80.00
2019-04-10T20:55:17.407Z,79.60
2019-04-10T21:00:23.106Z,79.40
2019-04-10T21:05:28.187Z,79.10
2019-04-10T21:10:33.271Z,78.80
2019-04-10T21:15:37.614Z,78.50
2019-04-10T21:20:43.098Z,78.60
2019-04-10T21:25:47.677Z,78.00
2019-04-10T21:31:02.358Z,77.90
2019-04-10T21:36:07.172Z,77.50
2019-04-10T21:41:12.534Z,77.10
2019-04-10T21:46:16.601Z,76.90
2019-04-10T21:51:20.751Z,76.30
2019-04-10T21:56:24.570Z,76.10
2019-04-10T22:01:28.459Z,75.80
2019-04-10T22:06:40.211Z,75.20
2019-04-10T22:11:51.719Z,75.00
2019-04-10T22:16:55.543Z,74.80
2019-04-10T22:21:59.684Z,74.50
2019-04-10T22:27:04.986Z,74.00
2019-04-10T22:32:09.176Z,69.40
2019-04-10T22:37:15.435Z,66.10
2019-04-10T22:42:19.235Z,64.40
2019-04-10T22:47:23.425Z,63.30
2019-04-10T22:52:28.185Z,62.50
2019-04-10T22:57:32.008Z,61.90
2019-04-10T23:02:36.142Z,61.30
2019-04-10T23:07:39.966Z,60.80
2019-04-10T23:12:52.265Z,60.30
2019-04-10T23:17:49.156Z,59.90
2019-04-10T23:22:52.983Z,60.30
2019-04-10T23:27:56.812Z,59.20
2019-04-10T23:33:01.519Z,59.00
2019-04-10T23:38:06.945Z,58.90
2019-04-10T23:43:14.043Z,58.60
2019-04-10T23:48:17.017Z,58.30
2019-04-10T23:53:22.524Z,58.90
2019-04-10T23:58:27.770Z,58.00
